Time;durP1;ratioP1;P1;durP2;ratioP2;P2;SDS_P1;SDS_P2;PMS_P1;PMS_P2;Temp;Humidity;BMP_temperature;BMP_pressure;BME280_temperature;BME280_humidity;BME280_pressure;Samples;Min_cycle;Max_cycle;Signal;HPM_P1;HPM_P2
2022/08/24 00:00:21;;;;;;;1.10;1.00;;;19.30;96.40;;;;;;5073594;28;20201;-48
2022/08/24 00:02:48;;;;;;;2.30;1.07;;;19.30;96.50;;;;;;5071965;28;20190;-48
2022/08/24 00:05:16;;;;;;;3.07;1.30;;;19.20;96.50;;;;;;5068751;28;20228;-52
2022/08/24 00:07:43;;;;;;;2.23;1.10;;;19.20;96.60;;;;;;5072658;28;20191;-48
2022/08/24 00:10:12;;;;;;;2.17;1.57;;;19.20;96.70;;;;;;5071546;28;20204;-47
2022/08/24 00:12:40;;;;;;;2.10;1.20;;;19.20;96.70;;;;;;5071968;28;20277;-45
2022/08/24 00:15:11;;;;;;;1.50;1.40;;;19.10;96.70;;;;;;5058832;28;20218;-50
2022/08/24 00:17:39;;;;;;;1.43;1.33;;;19.10;96.80;;;;;;5072887;28;20193;-45
2022/08/24 00:20:07;;;;;;;2.20;1.00;;;19.10;96.80;;;;;;5069082;28;20241;-46
2022/08/24 00:22:34;;;;;;;2.57;1.43;;;19.10;97.00;;;;;;5068974;28;20186;-46
2022/08/24 00:25:02;;;;;;;4.90;1.37;;;19.10;97.10;;;;;;5070155;28;20199;-46
2022/08/24 00:27:29;;;;;;;1.57;1.20;;;19.00;97.20;;;;;;5070724;28;20201;-47
2022/08/24 00:29:57;;;;;;;1.70;1.17;;;19.00;97.40;;;;;;5057541;28;20210;-49
2022/08/24 00:32:23;;;;;;;3.27;1.30;;;19.00;97.60;;;;;;5073348;28;20582;-49
2022/08/24 00:34:50;;;;;;;3.60;1.63;;;19.00;97.70;;;;;;5070303;28;20702;-51
2022/08/24 00:37:17;;;;;;;2.23;1.37;;;19.00;97.80;;;;;;5068538;28;20201;-51
2022/08/24 00:39:44;;;;;;;1.70;1.33;;;18.90;97.90;;;;;;5074780;28;20226;-47
2022/08/24 00:42:10;;;;;;;3.47;1.10;;;18.90;98.20;;;;;;5067644;28;20717;-51
2022/08/24 00:44:37;;;;;;;1.80;1.27;;;18.80;98.40;;;;;;5055972;28;20206;-50
2022/08/24 00:47:11;;;;;;;2.07;1.33;;;18.80;98.90;;;;;;5080315;28;20209;-51
2022/08/24 00:49:43;;;;;;;2.53;1.40;;;18.80;98.80;;;;;;5073316;28;20198;-49
2022/08/24 00:52:14;;;;;;;3.37;1.30;;;18.80;99.10;;;;;;5075541;28;20237;-53
2022/08/24 00:54:46;;;;;;;6.50;1.67;;;18.80;99.20;;;;;;5069744;28;20929;-48
2022/08/24 00:57:17;;;;;;;2.97;1.43;;;18.80;99.30;;;;;;5078925;28;20191;-46
2022/08/24 00:59:48;;;;;;;3.30;1.43;;;18.80;99.60;;;;;;5053260;28;20209;-51
2022/08/24 01:02:20;;;;;;;4.70;1.50;;;18.70;99.80;;;;;;5074989;28;20230;-52
2022/08/24 01:04:53;;;;;;;2.50;1.40;;;18.70;99.90;;;;;;5066942;28;20196;-47
2022/08/24 01:07:23;;;;;;;2.20;1.30;;;18.70;99.90;;;;;;5074641;28;20197;-48
2022/08/24 01:09:51;;;;;;;1.57;1.40;;;18.60;99.90;;;;;;5061524;28;20198;-47
2022/08/24 01:12:18;;;;;;;2.27;1.67;;;18.60;99.90;;;;;;5073619;28;20214;-51
2022/08/24 01:14:46;;;;;;;3.57;1.40;;;18.60;99.90;;;;;;5071361;28;21009;-46
2022/08/24 01:20:05;;;;;;;2.43;1.27;;;18.50;99.90;;;;;;5066371;28;20194;-48
2022/08/24 01:22:53;;;;;;;3.63;2.23;;;18.50;99.90;;;;;;5067984;28;20287;-48
2022/08/24 01:25:22;;;;;;;1.40;1.30;;;18.50;99.90;;;;;;5075446;28;20225;-51
2022/08/24 01:27:53;;;;;;;3.17;1.30;;;18.50;99.90;;;;;;5070878;28;20385;-48
2022/08/24 01:30:20;;;;;;;4.37;1.70;;;18.50;99.90;;;;;;5060422;28;20199;-50
2022/08/24 01:32:55;;;;;;;3.77;1.57;;;18.50;99.90;;;;;;5072959;28;20193;-48
2022/08/24 01:35:22;;;;;;;1.67;1.57;;;18.40;99.90;;;;;;5069169;28;20229;-47
2022/08/24 01:37:49;;;;;;;4.03;1.93;;;18.40;99.90;;;;;;5072511;28;20200;-46
2022/08/24 01:40:17;;;;;;;2.53;1.70;;;18.40;99.90;;;;;;5068687;28;20201;-45
2022/08/24 01:42:50;;;;;;;5.17;2.00;;;18.30;99.90;;;;;;5069305;28;20334;-45
2022/08/24 01:45:19;;;;;;;4.73;1.40;;;18.30;99.90;;;;;;5073845;28;20206;-48
2022/08/24 01:47:46;;;;;;;1.80;1.60;;;18.30;99.90;;;;;;5057482;28;20307;-47
2022/08/24 01:50:13;;;;;;;3.20;1.50;;;18.30;99.90;;;;;;5071218;28;20796;-48
2022/08/24 01:52:43;;;;;;;1.33;1.23;;;18.30;99.90;;;;;;5072844;28;20262;-45
2022/08/24 01:55:12;;;;;;;1.97;1.77;;;18.30;99.90;;;;;;5071186;28;20211;-48
2022/08/24 01:57:41;;;;;;;2.07;1.40;;;18.30;99.90;;;;;;5067515;28;20947;-45
2022/08/24 02:00:14;;;;;;;2.97;1.50;;;18.30;99.90;;;;;;5063062;28;20207;-51
2022/08/24 02:02:42;;;;;;;2.53;2.07;;;18.20;99.90;;;;;;5050781;28;20375;-44
2022/08/24 02:05:11;;;;;;;4.63;1.60;;;18.20;99.90;;;;;;5070756;28;20269;-45
2022/08/24 02:07:38;;;;;;;1.83;1.50;;;18.20;99.90;;;;;;5063218;28;22145;-45
2022/08/24 02:10:06;;;;;;;4.60;1.90;;;18.10;99.90;;;;;;5071606;28;20536;-44
2022/08/24 02:12:34;;;;;;;2.03;1.63;;;18.10;99.90;;;;;;5062566;28;20190;-43
2022/08/24 02:15:01;;;;;;;2.00;1.50;;;18.00;99.90;;;;;;5069995;28;20214;-46
2022/08/24 02:17:30;;;;;;;3.33;1.87;;;18.00;99.90;;;;;;5062768;28;20190;-47
2022/08/24 02:19:57;;;;;;;1.63;1.53;;;18.00;99.90;;;;;;5056232;28;20206;-45
2022/08/24 02:22:24;;;;;;;1.67;1.57;;;17.90;99.90;;;;;;5068727;28;20215;-46
2022/08/24 02:24:51;;;;;;;2.10;1.50;;;17.90;99.90;;;;;;5072286;28;20648;-45
2022/08/24 02:27:18;;;;;;;3.07;1.50;;;17.90;99.90;;;;;;5070505;28;20194;-46
2022/08/24 02:29:45;;;;;;;3.53;1.70;;;17.90;99.90;;;;;;5072227;28;20883;-48
2022/08/24 02:32:13;;;;;;;2.90;1.57;;;17.90;99.90;;;;;;5079769;28;20275;-52
2022/08/24 02:34:42;;;;;;;2.00;1.60;;;17.90;99.90;;;;;;5055946;28;20211;-48
2022/08/24 02:37:09;;;;;;;1.90;1.73;;;17.90;99.90;;;;;;5072878;28;20195;-45
2022/08/24 02:39:37;;;;;;;3.03;2.17;;;17.90;99.90;;;;;;5066853;28;20223;-46
2022/08/24 02:42:07;;;;;;;3.23;2.00;;;17.90;99.90;;;;;;5073646;28;20219;-47
2022/08/24 02:44:34;;;;;;;2.20;1.70;;;17.80;99.90;;;;;;5063900;28;20273;-45
2022/08/24 02:47:03;;;;;;;3.17;1.87;;;17.80;99.90;;;;;;5073750;28;20194;-48
2022/08/24 02:49:32;;;;;;;2.40;1.97;;;17.80;99.90;;;;;;5057058;28;20229;-45
2022/08/24 02:52:00;;;;;;;4.70;2.27;;;17.80;99.90;;;;;;5073368;28;20211;-46
2022/08/24 02:54:26;;;;;;;3.00;1.70;;;17.80;99.90;;;;;;5071476;28;20313;-51
2022/08/24 02:56:53;;;;;;;2.00;1.60;;;17.70;99.90;;;;;;5075344;28;20187;-48
2022/08/24 02:59:22;;;;;;;2.27;2.07;;;17.70;99.90;;;;;;5076775;28;20566;-52
2022/08/24 03:01:49;;;;;;;1.77;1.67;;;17.70;99.90;;;;;;5066580;28;20210;-49
2022/08/24 03:04:16;;;;;;;3.00;1.70;;;17.60;99.90;;;;;;5074912;28;20544;-48
2022/08/24 03:06:43;;;;;;;2.67;1.70;;;17.60;99.90;;;;;;5055816;28;20201;-53
2022/08/24 03:09:12;;;;;;;5.00;2.13;;;17.60;99.90;;;;;;5075932;28;20190;-50
2022/08/24 03:11:40;;;;;;;2.70;1.80;;;17.60;99.90;;;;;;5069818;28;20301;-48
2022/08/24 03:14:07;;;;;;;2.20;1.97;;;17.60;99.90;;;;;;5071617;28;20202;-52
2022/08/24 03:16:34;;;;;;;3.07;1.90;;;17.70;99.90;;;;;;5077598;28;20202;-51
2022/08/24 03:19:01;;;;;;;1.63;1.53;;;17.70;99.90;;;;;;5073691;28;20194;-50
2022/08/24 03:21:31;;;;;;;2.73;1.63;;;17.60;99.90;;;;;;5052700;28;20222;-48
2022/08/24 03:23:59;;;;;;;2.00;1.80;;;17.60;99.90;;;;;;5076287;28;20199;-47
2022/08/24 03:26:27;;;;;;;3.90;1.77;;;17.50;99.90;;;;;;5077340;28;20194;-50
2022/08/24 03:28:54;;;;;;;4.53;2.17;;;17.50;99.90;;;;;;5074178;28;20216;-50
2022/08/24 03:31:21;;;;;;;2.93;1.80;;;17.50;99.90;;;;;;5066784;28;20608;-47
2022/08/24 03:33:49;;;;;;;2.47;1.90;;;17.50;99.90;;;;;;5071640;28;20190;-46
2022/08/24 03:36:17;;;;;;;2.87;1.53;;;17.50;99.90;;;;;;5067650;28;20658;-46
2022/08/24 03:38:44;;;;;;;3.07;1.70;;;17.50;99.90;;;;;;5058377;28;20202;-47
2022/08/24 03:41:11;;;;;;;3.03;1.90;;;17.50;99.90;;;;;;5069515;28;20254;-50
2022/08/24 03:43:47;;;;;;;1.80;1.67;;;17.50;99.90;;;;;;5065712;28;20190;-50
2022/08/24 03:46:20;;;;;;;2.57;2.10;;;17.40;99.90;;;;;;5071943;28;20263;-52
2022/08/24 03:48:48;;;;;;;5.00;2.33;;;17.30;99.90;;;;;;5072596;28;20197;-48
2022/08/24 03:51:22;;;;;;;2.37;1.70;;;17.30;99.90;;;;;;5076212;28;20222;-50
2022/08/24 03:53:50;;;;;;;3.07;2.10;;;17.20;99.90;;;;;;5056131;28;20295;-47
2022/08/24 03:56:18;;;;;;;3.70;2.03;;;17.10;99.90;;;;;;5072592;28;20234;-49
2022/08/24 03:58:48;;;;;;;3.13;2.00;;;17.10;99.90;;;;;;5073455;28;20186;-49
2022/08/24 04:01:16;;;;;;;2.53;2.33;;;17.10;99.90;;;;;;5061245;28;20221;-50
2022/08/24 04:03:44;;;;;;;2.57;2.13;;;17.00;99.90;;;;;;5071621;28;20210;-48
2022/08/24 04:06:14;;;;;;;3.67;1.83;;;17.00;99.90;;;;;;5078611;28;20193;-50
2022/08/24 04:08:42;;;;;;;5.17;2.30;;;17.00;99.90;;;;;;5051666;28;22077;-50
2022/08/24 04:11:11;;;;;;;3.13;2.20;;;17.00;99.90;;;;;;5063467;28;20620;-50
2022/08/24 04:13:38;;;;;;;4.57;2.47;;;17.00;99.90;;;;;;5066045;28;20199;-51
2022/08/24 04:16:09;;;;;;;3.87;2.10;;;16.90;99.90;;;;;;5074679;28;20792;-52
2022/08/24 04:18:36;;;;;;;4.30;2.17;;;16.90;99.90;;;;;;5060824;28;20986;-52
2022/08/24 04:21:04;;;;;;;4.43;2.30;;;16.90;99.90;;;;;;5079254;28;20213;-52
2022/08/24 04:23:32;;;;;;;3.90;2.30;;;16.90;99.90;;;;;;5058792;28;20198;-50
2022/08/24 04:26:04;;;;;;;4.80;2.17;;;16.90;99.90;;;;;;5058901;28;20203;-47
2022/08/24 04:28:31;;;;;;;3.27;2.10;;;16.90;99.90;;;;;;5053727;28;20932;-47
2022/08/24 04:30:59;;;;;;;3.30;2.70;;;16.90;99.90;;;;;;5071529;28;20238;-49
2022/08/24 04:33:33;;;;;;;2.67;2.30;;;16.80;99.90;;;;;;5065027;28;20263;-51
2022/08/24 04:36:01;;;;;;;2.50;2.30;;;16.80;99.90;;;;;;5084410;28;20252;-51
2022/08/24 04:38:31;;;;;;;3.87;2.10;;;16.80;99.90;;;;;;5078486;28;20965;-50
2022/08/24 04:41:19;;;;;;;3.70;2.10;;;16.80;99.90;;;;;;5059886;28;20217;-49
2022/08/24 04:43:48;;;;;;;2.70;2.00;;;16.80;99.90;;;;;;5072196;28;20256;-49
2022/08/24 04:46:18;;;;;;;3.57;2.63;;;16.80;99.90;;;;;;5062407;28;20263;-46
2022/08/24 04:48:49;;;;;;;2.90;2.70;;;16.80;99.90;;;;;;5056769;28;20207;-49
2022/08/24 04:51:17;;;;;;;4.87;2.70;;;16.80;99.90;;;;;;5065556;28;20237;-49
2022/08/24 04:53:45;;;;;;;4.17;2.50;;;16.80;99.90;;;;;;5066070;28;20913;-47
2022/08/24 04:56:14;;;;;;;3.10;2.10;;;16.80;99.90;;;;;;5066154;28;20291;-52
2022/08/24 04:58:41;;;;;;;4.33;2.33;;;16.80;99.90;;;;;;5055428;28;20294;-49
2022/08/24 05:01:09;;;;;;;5.50;2.70;;;16.90;99.90;;;;;;5072441;28;20664;-48
2022/08/24 05:03:37;;;;;;;4.07;2.70;;;16.90;99.90;;;;;;5060988;28;20199;-46
2022/08/24 05:06:05;;;;;;;2.93;2.60;;;16.90;99.90;;;;;;5070133;28;20190;-46
2022/08/24 05:08:33;;;;;;;10.60;5.53;;;17.00;99.90;;;;;;5058686;28;20209;-51
2022/08/24 05:11:00;;;;;;;8.37;3.30;;;17.00;99.90;;;;;;5056560;28;20264;-49
2022/08/24 05:13:28;;;;;;;9.97;3.97;;;17.00;99.90;;;;;;5051995;28;20233;-51
2022/08/24 05:15:54;;;;;;;2.80;2.60;;;17.10;99.90;;;;;;5063960;28;20219;-49
2022/08/24 05:18:21;;;;;;;4.20;2.70;;;17.10;99.90;;;;;;5057334;28;20210;-46
2022/08/24 05:20:48;;;;;;;4.37;2.60;;;17.10;99.90;;;;;;5074201;28;20714;-46
2022/08/24 05:23:18;;;;;;;3.77;2.50;;;17.20;99.90;;;;;;5066521;28;20194;-46
2022/08/24 05:25:45;;;;;;;2.97;2.20;;;17.20;99.90;;;;;;5071211;28;20190;-52
2022/08/24 05:28:12;;;;;;;4.50;2.70;;;17.30;99.90;;;;;;5053041;28;20207;-47
2022/08/24 05:30:38;;;;;;;3.50;3.20;;;17.30;99.90;;;;;;5061874;28;20229;-48
2022/08/24 05:33:06;;;;;;;9.33;5.97;;;17.40;99.90;;;;;;5069786;28;20199;-45
2022/08/24 05:35:38;;;;;;;4.00;3.57;;;17.40;99.90;;;;;;5061578;28;20222;-47
2022/08/24 05:38:06;;;;;;;5.07;2.60;;;17.50;99.90;;;;;;5062385;28;20274;-46
2022/08/24 05:40:37;;;;;;;3.17;2.30;;;17.50;99.90;;;;;;5057819;28;20244;-49
2022/08/24 05:43:04;;;;;;;2.67;2.47;;;17.60;99.90;;;;;;5059195;28;20233;-49
2022/08/24 05:45:31;;;;;;;4.63;2.90;;;17.60;99.90;;;;;;5059490;28;20201;-47
2022/08/24 05:47:58;;;;;;;3.40;2.73;;;17.70;99.90;;;;;;5069112;28;20210;-47
2022/08/24 05:50:53;;;;;;;5.33;2.40;;;17.80;99.90;;;;;;5063975;28;20230;-47
2022/08/24 05:53:20;;;;;;;4.33;2.80;;;17.90;99.90;;;;;;5070682;28;20256;-46
2022/08/24 05:55:48;;;;;;;3.87;2.50;;;17.90;99.90;;;;;;5077185;28;20210;-45
2022/08/24 05:58:15;;;;;;;3.00;2.70;;;18.00;99.90;;;;;;5048854;28;20198;-47
2022/08/24 06:00:44;;;;;;;7.63;2.80;;;18.00;99.90;;;;;;5068478;28;20226;-47
2022/08/24 06:03:13;;;;;;;4.73;3.17;;;18.10;99.90;;;;;;5070415;28;20920;-44
2022/08/24 06:05:47;;;;;;;4.27;2.30;;;18.20;99.90;;;;;;5080130;28;20197;-47
2022/08/24 06:08:15;;;;;;;3.83;3.13;;;18.30;99.90;;;;;;5066211;28;20264;-50
2022/08/24 06:10:43;;;;;;;3.97;2.80;;;18.30;99.90;;;;;;5076183;28;20568;-47
2022/08/24 06:13:12;;;;;;;3.77;2.60;;;18.40;99.90;;;;;;5059346;28;20199;-44
2022/08/24 06:15:41;;;;;;;4.63;3.00;;;18.50;99.90;;;;;;5075333;28;20700;-45
2022/08/24 06:18:10;;;;;;;4.87;2.73;;;18.60;99.90;;;;;;5065128;28;20202;-45
2022/08/24 06:20:41;;;;;;;5.60;2.83;;;18.60;99.90;;;;;;5073199;28;20221;-45
2022/08/24 06:23:09;;;;;;;5.20;2.73;;;18.70;99.90;;;;;;5077384;28;20937;-44
2022/08/24 06:28:31;;;;;;;4.63;2.63;;;18.90;99.90;;;;;;5065006;28;20205;-46
2022/08/24 06:31:02;;;;;;;6.40;2.90;;;19.00;99.90;;;;;;5077525;28;20217;-43
2022/08/24 06:33:30;;;;;;;5.37;3.00;;;19.10;99.90;;;;;;5069290;28;20541;-43
2022/08/24 06:35:58;;;;;;;4.07;3.00;;;19.10;99.90;;;;;;5074809;28;20283;-44
2022/08/24 06:38:25;;;;;;;3.97;2.77;;;19.20;99.90;;;;;;5078391;28;20284;-42
2022/08/24 06:40:53;;;;;;;3.37;2.57;;;19.30;99.90;;;;;;5074734;28;20226;-44
2022/08/24 06:43:23;;;;;;;6.20;2.40;;;19.30;99.90;;;;;;5057832;28;20301;-45
2022/08/24 06:45:56;;;;;;;3.63;2.53;;;19.40;99.90;;;;;;5081309;28;20290;-46
2022/08/24 06:48:33;;;;;;;6.10;3.10;;;19.50;99.90;;;;;;5065197;28;21077;-42
2022/08/24 06:51:00;;;;;;;5.63;2.60;;;19.60;99.90;;;;;;5061272;28;20225;-42
2022/08/24 06:53:28;;;;;;;2.90;2.07;;;20.70;99.90;;;;;;5070693;28;20300;-41
2022/08/24 06:55:58;;;;;;;4.73;2.20;;;19.70;99.90;;;;;;5058507;28;20234;-44
2022/08/24 06:58:27;;;;;;;2.43;2.20;;;19.80;99.90;;;;;;5067577;28;20293;-44
2022/08/24 07:00:56;;;;;;;3.67;2.17;;;19.90;99.90;;;;;;5071243;28;22197;-42
2022/08/24 07:03:24;;;;;;;2.57;2.13;;;20.00;99.90;;;;;;5057839;27;20214;-43
2022/08/24 07:05:58;;;;;;;3.90;3.00;;;20.00;99.90;;;;;;5067744;28;20694;-42
2022/08/24 07:08:52;;;;;;;5.20;3.07;;;20.10;99.90;;;;;;5064536;28;20202;-41
2022/08/24 07:11:20;;;;;;;4.33;2.40;;;20.20;99.90;;;;;;5064630;28;20250;-41
2022/08/24 07:13:49;;;;;;;4.10;2.53;;;20.20;99.90;;;;;;5051880;28;20959;-45
2022/08/24 07:16:19;;;;;;;2.33;2.13;;;20.30;99.90;;;;;;5074802;28;20218;-42
2022/08/24 07:18:50;;;;;;;8.03;2.93;;;20.40;99.90;;;;;;5076252;28;20206;-44
2022/08/24 07:21:19;;;;;;;3.53;2.30;;;20.50;99.90;;;;;;5065699;28;20261;-42
2022/08/24 07:23:48;;;;;;;5.23;2.20;;;20.60;99.90;;;;;;5068711;28;20198;-44
2022/08/24 07:26:18;;;;;;;3.63;2.50;;;20.70;99.90;;;;;;5092197;28;20212;-41
2022/08/24 07:28:45;;;;;;;4.77;2.33;;;20.80;99.90;;;;;;5071873;28;20574;-44
2022/08/24 07:31:14;;;;;;;4.20;2.43;;;20.90;99.90;;;;;;5057595;28;20314;-42
2022/08/24 07:33:49;;;;;;;4.17;2.67;;;21.00;99.90;;;;;;5074917;28;20231;-42
2022/08/24 07:36:18;;;;;;;4.37;2.00;;;21.00;99.90;;;;;;5062846;28;20238;-42
2022/08/24 07:38:45;;;;;;;5.00;2.57;;;21.10;99.90;;;;;;5084003;28;20204;-41
2022/08/24 07:41:13;;;;;;;3.20;2.23;;;21.20;99.90;;;;;;5069309;28;20265;-41
2022/08/24 07:43:40;;;;;;;3.83;2.37;;;21.30;99.90;;;;;;5072899;28;20286;-41
2022/08/24 07:46:07;;;;;;;2.50;2.33;;;21.40;99.90;;;;;;5057154;28;20227;-41
2022/08/24 07:48:35;;;;;;;4.47;2.63;;;21.40;99.90;;;;;;5074413;28;20197;-42
2022/08/24 07:51:08;;;;;;;2.47;2.20;;;21.60;99.90;;;;;;5062413;28;20219;-42
2022/08/24 07:53:36;;;;;;;3.10;2.10;;;21.60;99.90;;;;;;5063249;28;20198;-42
2022/08/24 07:56:04;;;;;;;2.63;2.43;;;21.70;99.90;;;;;;5067542;28;20302;-41
2022/08/24 07:58:32;;;;;;;4.03;2.73;;;21.80;99.90;;;;;;5073527;28;20244;-43
2022/08/24 08:01:00;;;;;;;4.93;2.40;;;22.10;99.90;;;;;;5059744;28;20363;-44
2022/08/24 08:03:28;;;;;;;4.60;2.20;;;22.00;99.90;;;;;;5071993;28;20202;-42
2022/08/24 08:05:57;;;;;;;2.60;2.40;;;22.10;99.90;;;;;;5060009;28;20199;-42
2022/08/24 08:08:26;;;;;;;2.60;2.40;;;22.20;99.90;;;;;;5068805;28;20271;-42
2022/08/24 08:10:56;;;;;;;4.30;2.27;;;22.30;99.90;;;;;;5062742;28;20230;-41
2022/08/24 08:13:23;;;;;;;3.70;2.17;;;22.30;99.90;;;;;;5060625;28;20199;-43
2022/08/24 08:15:50;;;;;;;3.73;2.63;;;22.40;99.90;;;;;;5061927;28;20302;-41
2022/08/24 08:18:19;;;;;;;3.07;2.20;;;22.50;99.90;;;;;;5056244;28;20274;-41
2022/08/24 08:20:47;;;;;;;6.23;2.20;;;22.60;99.90;;;;;;5068961;28;20737;-43
2022/08/24 08:26:11;;;;;;;5.90;2.60;;;22.80;99.90;;;;;;5075829;28;20194;-41
2022/08/24 08:28:47;;;;;;;4.60;2.50;;;22.90;99.90;;;;;;5070080;28;20206;-42
2022/08/24 08:31:14;;;;;;;4.00;2.55;;;23.00;99.90;;;;;;5079339;28;20228;-46
2022/08/24 08:33:41;;;;;;;7.13;2.47;;;23.10;99.90;;;;;;5065889;28;20206;-42
2022/08/24 08:36:13;;;;;;;3.20;2.40;;;23.20;99.90;;;;;;5062346;28;20210;-42
2022/08/24 08:38:46;;;;;;;3.42;2.30;;;23.30;99.90;;;;;;5069223;28;20195;-43
2022/08/24 08:41:57;;;;;;;2.72;2.53;;;23.40;99.90;;;;;;5059521;28;21097;-41
2022/08/24 08:44:43;;;;;;;2.90;2.50;;;23.60;99.90;;;;;;5060410;28;20230;-41
2022/08/24 08:47:23;;;;;;;7.13;2.38;;;23.70;99.90;;;;;;5047313;28;20198;-44
2022/08/24 08:50:04;;;;;;;5.13;2.38;;;23.80;99.90;;;;;;5073465;28;20228;-39
2022/08/24 08:53:04;;;;;;;4.70;2.70;;;23.80;99.90;;;;;;5059638;28;20699;-39
2022/08/24 08:55:36;;;;;;;4.25;2.45;;;23.80;99.90;;;;;;5072711;28;20194;-40
2022/08/24 08:58:18;;;;;;;3.38;1.98;;;23.90;99.90;;;;;;5069070;28;20186;-40
2022/08/24 09:01:00;;;;;;;4.75;2.40;;;23.90;99.90;;;;;;5083836;28;20288;-40
2022/08/24 09:03:58;;;;;;;3.92;2.35;;;24.10;99.90;;;;;;5057983;28;20210;-42
2022/08/24 09:07:11;;;;;;;5.47;2.33;;;24.20;99.90;;;;;;5074347;28;20190;-41
2022/08/24 09:10:17;;;;;;;7.05;2.45;;;24.30;99.90;;;;;;5074695;28;20213;-40
2022/08/24 09:13:00;;;;;;;5.55;2.50;;;24.30;99.90;;;;;;5041160;28;20206;-40
2022/08/24 09:15:53;;;;;;;3.00;2.42;;;24.40;99.90;;;;;;5072113;28;20199;-40
2022/08/24 09:18:34;;;;;;;2.70;2.28;;;24.60;99.90;;;;;;5045434;28;20271;-44
2022/08/24 09:21:18;;;;;;;3.97;2.63;;;24.70;99.90;;;;;;5073121;28;20241;-40
2022/08/24 09:23:59;;;;;;;4.65;2.30;;;24.80;99.90;;;;;;5060849;28;20199;-41
2022/08/24 09:26:29;;;;;;;3.20;2.00;;;24.80;99.90;;;;;;5073374;28;20193;-39
2022/08/24 09:29:08;;;;;;;2.90;2.70;;;24.90;99.90;;;;;;5069531;28;20190;-40
2022/08/24 09:31:50;;;;;;;4.68;2.47;;;25.00;99.90;;;;;;5069020;28;20621;-42
2022/08/24 09:34:32;;;;;;;3.30;2.28;;;24.90;99.90;;;;;;5059641;28;20285;-42
2022/08/24 09:37:12;;;;;;;3.38;2.88;;;25.00;99.90;;;;;;5072864;28;20402;-41
2022/08/24 09:39:58;;;;;;;3.30;2.20;;;25.10;99.90;;;;;;5066776;28;20236;-41
2022/08/24 09:43:08;;;;;;;2.78;2.08;;;25.10;99.90;;;;;;5072014;28;20234;-41
2022/08/24 09:46:06;;;;;;;2.47;2.05;;;25.20;99.30;;;;;;5075189;28;20288;-41
2022/08/24 09:48:59;;;;;;;3.10;2.38;;;25.20;99.00;;;;;;5044117;28;20205;-40
2022/08/24 09:52:18;;;;;;;3.40;2.25;;;25.30;98.40;;;;;;5057461;28;20253;-41
2022/08/24 09:55:07;;;;;;;4.57;2.30;;;25.30;97.80;;;;;;5011830;28;20265;-45
2022/08/24 09:57:56;;;;;;;2.65;2.05;;;25.40;98.00;;;;;;5008618;28;20305;-41
2022/08/24 10:00:28;;;;;;;3.00;2.25;;;25.50;98.00;;;;;;5053820;28;20925;-42
2022/08/24 10:03:14;;;;;;;2.75;2.03;;;25.60;97.80;;;;;;5060896;28;20214;-41
2022/08/24 10:06:03;;;;;;;6.43;2.13;;;25.80;97.20;;;;;;5055182;28;20219;-42
2022/08/24 10:08:50;;;;;;;2.60;2.10;;;25.80;96.90;;;;;;5061299;28;20202;-41
2022/08/24 10:11:24;;;;;;;2.75;2.00;;;25.80;96.90;;;;;;5050458;28;20226;-40
2022/08/24 10:13:59;;;;;;;3.53;3.22;;;25.80;97.00;;;;;;5059876;28;20692;-41
2022/08/24 10:16:38;;;;;;;2.60;2.10;;;25.90;96.70;;;;;;5063286;28;20365;-42
2022/08/24 10:19:22;;;;;;;3.85;2.65;;;26.00;95.80;;;;;;5069748;28;20197;-40
2022/08/24 10:21:58;;;;;;;3.38;2.40;;;26.10;95.40;;;;;;5053407;28;20248;-42
2022/08/24 10:24:42;;;;;;;2.30;2.05;;;26.20;95.50;;;;;;5065089;28;20194;-40
2022/08/24 10:27:37;;;;;;;4.95;2.20;;;26.10;95.10;;;;;;5056732;28;20265;-42
2022/08/24 10:30:21;;;;;;;2.55;2.30;;;26.30;94.70;;;;;;5057377;28;20205;-42
2022/08/24 10:33:02;;;;;;;3.13;2.53;;;26.30;93.80;;;;;;5061485;28;20202;-42
2022/08/24 10:35:35;;;;;;;3.80;2.17;;;26.30;93.50;;;;;;5058574;28;20201;-41
2022/08/24 10:41:40;;;;;;;3.47;1.95;;;26.40;92.90;;;;;;5058002;28;20222;-41
2022/08/24 10:44:28;;;;;;;5.45;2.15;;;26.60;92.70;;;;;;5047715;28;20226;-42
2022/08/24 10:46:59;;;;;;;2.65;1.98;;;26.60;92.80;;;;;;5073539;28;20723;-40
2022/08/24 10:49:56;;;;;;;2.35;1.98;;;26.60;92.10;;;;;;5061285;28;20986;-42
2022/08/24 10:53:04;;;;;;;2.05;1.70;;;26.80;91.70;;;;;;5060281;28;20222;-40
2022/08/24 10:55:35;;;;;;;2.75;1.98;;;26.90;91.70;;;;;;5062809;28;20198;-40
2022/08/24 10:58:30;;;;;;;2.90;2.03;;;27.00;91.10;;;;;;5071978;28;20759;-44
2022/08/24 11:01:14;;;;;;;2.42;2.22;;;26.90;90.60;;;;;;5063761;28;20305;-42
2022/08/24 11:03:49;;;;;;;4.55;1.90;;;26.90;90.50;;;;;;5060425;28;20205;-41
2022/08/24 11:06:18;;;;;;;3.40;1.80;;;27.10;90.00;;;;;;5068489;28;20205;-41
2022/08/24 11:08:53;;;;;;;3.92;1.90;;;27.20;89.20;;;;;;5063686;28;20210;-40
2022/08/24 11:11:27;;;;;;;2.47;2.05;;;27.30;88.00;;;;;;5061045;28;20305;-40
2022/08/24 11:13:59;;;;;;;3.40;2.10;;;27.30;87.60;;;;;;5077666;28;20197;-41
2022/08/24 11:16:30;;;;;;;3.83;1.80;;;27.30;87.40;;;;;;5062280;28;20187;-42
2022/08/24 11:18:59;;;;;;;3.15;1.40;;;27.30;86.70;;;;;;5064651;28;20264;-43
2022/08/24 11:21:37;;;;;;;4.82;1.73;;;27.40;86.10;;;;;;5067992;28;20214;-40
2022/08/24 11:24:07;;;;;;;3.65;1.85;;;27.40;84.50;;;;;;5064487;28;20205;-40
2022/08/24 11:26:51;;;;;;;2.10;1.77;;;27.50;85.00;;;;;;5059320;28;20225;-44
2022/08/24 11:29:18;;;;;;;7.00;1.85;;;27.70;82.70;;;;;;5071346;28;20222;-41
2022/08/24 11:31:49;;;;;;;5.13;1.88;;;27.60;83.10;;;;;;5066600;28;20214;-43
2022/08/24 11:34:29;;;;;;;1.92;1.60;;;27.60;83.60;;;;;;5067011;28;20272;-42
2022/08/24 11:36:57;;;;;;;3.42;1.90;;;27.80;82.30;;;;;;5076290;28;20205;-44
2022/08/24 11:39:29;;;;;;;1.77;1.45;;;27.90;81.10;;;;;;5061127;28;20496;-41
2022/08/24 11:42:04;;;;;;;4.22;1.80;;;27.90;81.50;;;;;;5070179;28;20561;-41
2022/08/24 11:44:45;;;;;;;3.58;1.70;;;27.90;81.70;;;;;;5065106;28;20894;-43
2022/08/24 11:47:35;;;;;;;2.85;1.70;;;27.90;82.30;;;;;;5067035;28;20210;-42
2022/08/24 11:50:10;;;;;;;2.08;1.83;;;27.90;82.60;;;;;;5073664;28;20201;-41
2022/08/24 11:52:50;;;;;;;2.45;1.80;;;28.00;82.50;;;;;;5069638;28;20213;-42
2022/08/24 11:55:21;;;;;;;4.00;1.88;;;28.00;80.60;;;;;;5056079;28;20206;-40
2022/08/24 11:57:56;;;;;;;2.85;2.00;;;28.00;80.60;;;;;;5068881;28;20213;-43
2022/08/24 12:00:25;;;;;;;4.65;1.80;;;28.20;80.30;;;;;;5068278;28;20532;-43
2022/08/24 12:03:00;;;;;;;3.03;1.77;;;28.30;80.40;;;;;;5066998;28;20297;-41
2022/08/24 12:05:36;;;;;;;2.80;1.70;;;28.30;79.40;;;;;;5069852;28;20186;-43
2022/08/24 12:08:13;;;;;;;3.45;2.00;;;28.30;79.00;;;;;;5070458;28;20255;-41
2022/08/24 12:10:50;;;;;;;2.92;1.58;;;28.50;76.60;;;;;;5058239;28;20221;-41
2022/08/24 12:13:31;;;;;;;4.25;1.73;;;28.50;76.40;;;;;;5055191;28;20202;-42
2022/08/24 12:16:08;;;;;;;2.17;1.90;;;28.50;76.30;;;;;;5068311;28;20205;-42
2022/08/24 12:18:51;;;;;;;4.85;1.40;;;28.70;76.10;;;;;;5057815;28;20940;-43
2022/08/24 12:21:21;;;;;;;2.92;1.80;;;28.60;74.70;;;;;;5053699;28;20271;-41
2022/08/24 12:23:51;;;;;;;1.77;1.50;;;28.60;75.40;;;;;;5064957;28;20195;-44
2022/08/24 12:26:26;;;;;;;1.70;1.60;;;28.80;75.10;;;;;;5057771;28;20199;-42
2022/08/24 12:29:00;;;;;;;3.72;1.50;;;29.00;73.90;;;;;;5068381;28;20218;-42
2022/08/24 12:31:37;;;;;;;1.90;1.80;;;29.00;73.00;;;;;;5059925;28;20230;-44
2022/08/24 12:34:10;;;;;;;2.85;1.70;;;28.90;73.20;;;;;;5054446;28;20205;-41
2022/08/24 12:36:46;;;;;;;1.45;1.42;;;28.90;72.60;;;;;;5062484;28;20202;-43
2022/08/24 12:39:18;;;;;;;1.85;1.65;;;28.80;73.10;;;;;;5068374;28;20205;-42
2022/08/24 12:41:54;;;;;;;2.83;1.77;;;29.00;73.60;;;;;;5055957;28;20222;-44
2022/08/24 12:44:28;;;;;;;5.05;1.80;;;29.30;72.20;;;;;;5057617;28;20309;-42
2022/08/24 12:46:56;;;;;;;3.67;2.50;;;29.30;71.90;;;;;;5072643;28;20204;-42
2022/08/24 12:49:27;;;;;;;4.28;2.00;;;29.20;71.10;;;;;;5062890;28;20202;-42
2022/08/24 12:52:12;;;;;;;2.28;1.50;;;29.20;71.10;;;;;;5062293;28;20683;-43
2022/08/24 12:55:07;;;;;;;3.33;1.50;;;29.30;70.10;;;;;;5058356;28;20838;-45
2022/08/24 12:57:46;;;;;;;4.68;1.40;;;29.40;69.30;;;;;;5055578;28;20225;-43
2022/08/24 13:00:28;;;;;;;1.80;1.63;;;29.50;69.00;;;;;;5058575;28;20206;-46
2022/08/24 13:02:59;;;;;;;2.47;1.60;;;29.60;69.30;;;;;;5060206;28;20203;-44
2022/08/24 13:05:41;;;;;;;2.30;1.60;;;29.70;68.80;;;;;;5062923;28;20195;-44
2022/08/24 13:08:16;;;;;;;2.60;1.50;;;29.70;68.50;;;;;;5057663;28;20676;-42
2022/08/24 13:10:52;;;;;;;2.17;1.58;;;29.70;67.80;;;;;;5069712;28;20355;-42
2022/08/24 13:13:40;;;;;;;1.85;1.50;;;29.80;67.70;;;;;;5052495;28;20190;-43
2022/08/24 13:16:09;;;;;;;2.95;1.25;;;30.20;66.10;;;;;;5061060;28;20273;-42
2022/08/24 13:18:49;;;;;;;1.98;1.30;;;30.40;66.30;;;;;;5062787;28;20218;-43
2022/08/24 13:21:35;;;;;;;1.45;1.35;;;30.70;64.10;;;;;;5062632;28;20234;-43
2022/08/24 13:24:47;;;;;;;3.63;1.52;;;30.90;63.30;;;;;;5061968;28;20202;-48
2022/08/24 13:27:47;;;;;;;1.85;1.75;;;31.10;60.80;;;;;;5032969;28;20890;-45
2022/08/24 13:30:28;;;;;;;2.88;1.40;;;31.50;61.10;;;;;;5047915;28;20216;-42